.
WxDataArchive / Data Records for 2014-10-19
2014-10-18 October 2014 2014-10-20

Data Records for Sunday, 19 October 2014

Time	Temp	Chill	HIndex	Humid	Dewpt	 Wind 	HiWind	WindDir	Rain 	Barom
-----	----	-----	------	-----	-----	------	------	-------	-----	-----
00:00	43.6	43.6	43.6	79	37.5	0	1	315	0.00	30.130 
00:05	43.5	43.5	43.5	79	37.4	0	1	315	0.00	30.130 
00:10	43.5	43.5	43.5	79	37.4	0	1	315	0.00	30.130 
00:15	43.5	43.5	43.5	79	37.4	0	1	315	0.00	30.136 
00:20	43.5	43.5	43.5	79	37.4	0	1	315	0.00	30.136 
00:25	43.5	43.5	43.5	79	37.4	0	1	315	0.00	30.136 
00:30	43.3	43.3	43.3	78	36.9	0	3	315	0.00	30.140 
00:35	43.5	43.5	43.5	77	36.8	0	2	315	0.00	30.140 
00:40	43.5	43.5	43.5	76	36.4	1	4	315	0.00	30.140 
00:45	43.3	43.3	43.3	75	35.9	0	2	315	0.00	30.142 
00:50	43.3	43.3	43.3	75	35.9	0	3	315	0.00	30.142 
00:55	43.2	43.2	43.2	74	35.5	1	4	292	0.00	30.142 
01:00	43.2	43.2	43.2	73	35.1	1	4	292	0.00	30.143 
01:05	43.1	43.1	43.1	73	35.0	1	3	292	0.00	30.143 
01:10	43.1	43.1	43.1	73	35.0	0	1	292	0.00	30.143 
01:15	43.1	43.1	43.1	74	35.4	0	1	292	0.00	30.154 
01:20	43.1	43.1	43.1	74	35.4	0	1	292	0.00	30.154 
01:25	43.1	43.1	43.1	73	35.0	0	2	292	0.00	30.154 
01:30	43.1	43.1	43.1	74	35.4	0	2	292	0.00	30.157 
01:35	43.1	43.1	43.1	73	35.0	1	5	292	0.00	30.157 
01:40	42.9	42.9	42.9	74	35.2	0	1	292	0.00	30.157 
01:45	42.9	42.9	42.9	75	35.5	0	1	292	0.00	30.158 
01:50	42.9	42.9	42.9	75	35.5	0	3	292	0.00	30.158 
01:55	42.8	42.8	42.8	75	35.4	1	3	292	0.00	30.158 
02:00	42.6	42.6	42.6	76	35.6	0	2	292	0.00	30.158 
02:05	42.5	42.5	42.5	76	35.5	0	2	292	0.00	30.158 
02:10	42.3	42.3	42.3	76	35.3	0	2	292	0.00	30.158 
02:15	42.2	42.2	42.2	77	35.5	0	2	292	0.00	30.159 
02:20	41.9	41.9	41.9	77	35.2	0	3	292	0.00	30.159 
02:25	41.8	41.8	41.8	77	35.1	0	1	292	0.00	30.159 
02:30	41.8	41.8	41.8	78	35.5	0	1	292	0.00	30.165 
02:35	41.6	41.6	41.6	78	35.3	0	1	292	0.00	30.165 
02:40	41.3	41.3	41.3	78	35.0	0	2	292	0.00	30.165 
02:45	41.1	41.1	41.1	78	34.8	0	3	292	0.00	30.169 
02:50	40.8	40.8	40.8	78	34.5	0	2	292	0.00	30.169 
02:55	40.6	40.6	40.6	79	34.6	0	1	292	0.00	30.169 
03:00	40.3	40.3	40.3	80	34.6	0	0	---	0.00	30.173 
03:05	40.2	40.2	40.2	80	34.5	0	1	292	0.00	30.173 
03:10	40.1	40.1	40.1	81	34.7	0	1	292	0.00	30.173 
03:15	39.8	39.8	39.8	81	34.5	0	1	292	0.00	30.175 
03:20	39.5	39.5	39.5	81	34.2	0	0	---	0.00	30.175 
03:25	39.2	39.2	39.2	82	34.2	0	0	---	0.00	30.175 
03:30	39.1	39.1	39.1	82	34.1	0	0	---	0.00	30.179 
03:35	38.8	38.8	38.8	83	34.1	0	0	---	0.00	30.179 
03:40	38.6	38.6	38.6	83	33.9	0	0	---	0.00	30.179 
03:45	38.3	38.3	38.3	84	33.9	0	0	---	0.00	30.177 
03:50	38.0	38.0	38.0	84	33.6	0	0	---	0.00	30.177 
03:55	37.8	37.8	37.8	84	33.4	0	0	---	0.00	30.177 
04:00	37.5	37.5	37.5	85	33.4	0	0	---	0.00	30.174 
04:05	37.3	37.3	37.3	85	33.2	0	0	---	0.00	30.174 
04:10	37.0	37.0	37.0	85	32.9	0	0	---	0.00	30.174 
04:15	36.8	36.8	36.8	85	32.7	0	0	---	0.00	30.176 
04:20	36.6	36.6	36.6	86	32.8	0	0	---	0.00	30.176 
04:25	36.5	36.5	36.5	87	33.0	0	0	---	0.00	30.176 
04:30	36.3	36.3	36.3	88	33.1	0	1	292	0.00	30.179 
04:35	36.3	36.3	36.3	88	33.1	0	0	---	0.00	30.179 
04:40	36.2	36.2	36.2	88	33.0	0	0	---	0.00	30.179 
04:45	36.0	36.0	36.0	88	32.8	0	0	---	0.00	30.177 
04:50	35.9	35.9	35.9	88	32.7	0	0	---	0.00	30.177 
04:55	35.8	35.8	35.8	89	32.9	0	0	---	0.00	30.177 
05:00	35.6	35.6	35.6	89	32.7	0	0	---	0.00	30.176 
05:05	35.3	35.3	35.3	89	32.4	0	0	---	0.00	30.176 
05:10	35.2	35.2	35.2	89	32.3	0	0	---	0.00	30.176 
05:15	35.0	35.0	35.0	89	32.1	0	0	---	0.00	30.175 
05:20	34.9	34.9	34.9	89	32.0	0	0	---	0.00	30.175 
05:25	34.6	34.6	34.6	89	31.7	0	0	---	0.00	30.175 
05:30	34.4	34.4	34.4	89	31.5	0	0	---	0.00	30.174 
05:35	34.4	34.4	34.4	90	31.8	0	0	---	0.00	30.174 
05:40	34.4	34.4	34.4	90	31.8	0	0	---	0.00	30.174 
05:45	34.4	34.4	34.4	90	31.8	0	0	---	0.00	30.180 
05:50	34.4	34.4	34.4	90	31.8	0	0	---	0.00	30.180 
05:55	34.3	34.3	34.3	91	32.0	0	0	---	0.00	30.180 
06:00	34.3	34.3	34.3	91	32.0	0	0	---	0.00	30.184 
06:05	34.1	34.1	34.1	91	31.8	0	0	---	0.00	30.184 
06:10	33.8	33.8	33.8	91	31.5	0	0	---	0.00	30.184 
06:15	33.7	33.7	33.7	91	31.4	0	0	---	0.00	30.183 
06:20	33.5	33.5	33.5	91	31.2	0	0	---	0.00	30.183 
06:25	33.5	33.5	33.5	91	31.2	0	0	---	0.00	30.183 
06:30	33.4	33.4	33.4	91	31.1	0	0	---	0.00	30.183 
06:35	33.4	33.4	33.4	91	31.1	0	0	---	0.00	30.183 
06:40	33.2	33.2	33.2	91	30.9	0	0	---	0.00	30.183 
06:45	33.1	33.1	33.1	92	31.0	0	0	---	0.00	30.185 
06:50	33.1	33.1	33.1	92	31.0	0	0	---	0.00	30.185 
06:55	32.9	32.9	32.9	92	30.8	0	0	---	0.00	30.185 
07:00	32.8	32.8	32.8	92	30.7	0	0	---	0.00	30.192 
07:05	32.7	32.7	32.7	92	30.6	0	0	---	0.00	30.192 
07:10	32.5	32.5	32.5	92	30.4	0	0	---	0.00	30.192 
07:15	32.5	32.5	32.5	92	30.4	0	0	---	0.00	30.197 
07:20	32.4	32.4	32.4	92	30.3	0	0	---	0.00	30.197 
07:25	32.2	32.2	32.2	92	30.1	0	0	---	0.00	30.197 
07:30	32.1	32.1	32.1	92	30.0	0	0	---	0.00	30.198 
07:35	31.9	31.9	31.9	92	29.8	0	0	---	0.00	30.198 
07:40	31.8	31.8	31.8	92	29.7	0	0	---	0.00	30.198 
07:45	31.6	31.6	31.6	92	29.5	0	0	---	0.00	30.197 
07:50	31.6	31.6	31.6	92	29.5	0	0	---	0.00	30.197 
07:55	31.5	31.5	31.5	92	29.4	0	0	---	0.00	30.197 
08:00	31.5	31.5	31.5	92	29.4	0	0	---	0.00	30.199 
08:05	31.3	31.3	31.3	92	29.3	0	0	---	0.00	30.199 
08:10	31.3	31.3	31.3	92	29.3	0	0	---	0.00	30.199 
08:15	31.2	31.2	31.2	92	29.2	0	0	---	0.00	30.204 
08:20	31.2	31.2	31.2	92	29.2	0	0	---	0.00	30.204 
08:25	31.2	31.2	31.2	92	29.2	0	0	---	0.00	30.204 
08:30	31.3	31.3	31.3	92	29.3	0	0	---	0.00	30.203 
08:35	31.3	31.3	31.3	92	29.3	0	0	---	0.00	30.203 
08:40	31.5	31.5	31.5	92	29.4	0	0	---	0.00	30.203 
08:45	31.9	31.9	31.9	93	30.1	0	0	---	0.00	30.207 
08:50	32.4	32.4	32.4	93	30.6	0	0	---	0.00	30.207 
08:55	32.9	32.9	32.9	93	31.1	0	0	---	0.00	30.207 
09:00	33.4	33.4	33.4	93	31.6	0	0	---	0.00	30.215 
09:05	33.8	33.8	33.8	94	32.3	0	0	---	0.00	30.215 
09:10	34.3	34.3	34.3	94	32.8	0	0	---	0.00	30.215 
09:15	34.7	34.7	34.7	94	33.2	0	0	---	0.00	30.217 
09:20	35.2	35.2	35.2	94	33.6	0	0	---	0.00	30.217 
09:25	35.5	35.5	35.5	94	33.9	0	0	---	0.00	30.217 
09:30	35.8	35.8	35.8	94	34.2	0	0	---	0.00	30.221 
09:35	36.2	36.2	36.2	94	34.6	0	0	---	0.00	30.221 
09:40	36.5	36.5	36.5	93	34.7	0	1	292	0.00	30.221 
09:45	36.8	36.8	36.8	93	35.0	0	0	---	0.00	30.228 
09:50	37.2	37.2	37.2	93	35.4	0	1	315	0.00	30.228 
09:55	37.6	37.6	37.6	93	35.8	0	0	---	0.00	30.228 
10:00	38.0	38.0	38.0	92	35.9	0	1	315	0.00	30.231 
10:05	38.5	38.5	38.5	92	36.4	0	1	315	0.00	30.231 
10:10	38.9	38.9	38.9	91	36.5	0	1	315	0.00	30.231 
10:15	39.8	39.8	39.8	89	36.8	0	0	---	0.00	30.233 
10:20	40.3	40.3	40.3	86	36.5	0	1	315	0.00	30.233 
10:25	40.8	40.8	40.8	83	36.0	0	1	315	0.00	30.233 
10:30	41.2	41.2	41.2	81	35.8	0	1	315	0.00	30.232 
10:35	41.9	41.9	41.9	80	36.2	0	1	315	0.00	30.232 
10:40	42.6	42.6	42.6	79	36.6	0	1	315	0.00	30.232 
10:45	43.2	43.2	43.2	75	35.8	0	1	315	0.00	30.226 
10:50	44.2	44.2	44.2	72	35.8	0	1	315	0.00	30.226 
10:55	44.5	44.5	44.5	70	35.3	0	1	315	0.00	30.226 
11:00	44.5	44.5	44.5	69	35.0	0	2	315	0.00	30.224 
11:05	44.2	44.2	44.2	66	33.6	1	2	315	0.00	30.224 
11:10	44.2	44.2	44.2	68	34.3	0	2	315	0.00	30.224 
11:15	44.5	44.5	44.5	69	35.0	0	1	315	0.00	30.221 
11:20	44.8	44.8	44.8	68	34.9	0	3	315	0.00	30.221 
11:25	45.2	45.2	45.2	70	36.0	0	2	315	0.00	30.221 
11:30	45.5	45.5	45.5	68	35.6	1	3	315	0.00	30.216 
11:35	45.8	45.8	45.8	67	35.5	0	1	315	0.00	30.216 
11:40	45.8	45.8	45.8	66	35.1	1	3	315	0.00	30.216 
11:45	46.1	46.1	46.1	67	35.8	1	3	315	0.00	30.212 
11:50	46.5	46.5	46.5	67	36.1	0	2	315	0.00	30.212 
11:55	46.8	46.8	46.8	65	35.7	1	3	315	0.00	30.212 
12:00	47.1	47.1	47.1	66	36.3	0	3	315	0.00	30.207 
12:05	47.3	47.3	47.3	65	36.1	1	3	315	0.00	30.207 
12:10	47.4	47.4	47.4	65	36.2	1	2	315	0.00	30.207 
12:15	47.7	47.7	47.7	63	35.7	1	4	315	0.00	30.210 
12:20	47.7	47.7	47.7	64	36.1	1	3	315	0.00	30.210 
12:25	47.9	47.9	47.9	63	35.9	1	4	292	0.00	30.210 
12:30	48.2	48.2	48.2	65	37.0	1	4	292	0.00	30.206 
12:35	48.3	48.3	48.3	61	35.5	1	5	270	0.00	30.206 
12:40	48.3	48.3	48.3	62	35.9	0	2	270	0.00	30.206 
12:45	48.5	48.5	48.5	62	36.1	1	3	270	0.00	30.205 
12:50	48.6	48.6	48.6	62	36.2	1	3	270	0.00	30.205 
12:55	48.9	48.9	48.9	63	36.9	1	3	270	0.00	30.205 
13:00	49.2	49.2	49.2	61	36.3	1	4	270	0.00	30.201 
13:05	49.5	49.5	49.5	62	37.0	1	3	292	0.00	30.201 
13:10	49.6	49.6	49.6	60	36.3	1	3	292	0.00	30.201 
13:15	49.8	49.8	49.8	62	37.3	0	2	292	0.00	30.192 
13:20	49.9	49.9	49.9	60	36.6	1	2	292	0.00	30.192 
13:25	50.1	50.1	50.1	58	35.9	1	4	292	0.00	30.192 
13:30	50.4	50.4	50.4	58	36.2	0	2	292	0.00	30.183 
13:35	50.4	50.4	50.4	58	36.2	0	2	292	0.00	30.183 
13:40	50.5	50.5	50.5	57	35.8	1	3	292	0.00	30.183 
13:45	50.5	50.5	50.5	57	35.8	0	1	292	0.00	30.177 
13:50	50.8	50.8	50.8	58	36.6	0	2	292	0.00	30.177 
13:55	50.8	50.8	50.8	58	36.6	1	3	292	0.00	30.177 
14:00	51.0	51.0	51.0	58	36.7	0	3	45	0.00	30.170 
14:05	51.1	51.1	51.1	58	36.8	0	2	45	0.00	30.170 
14:10	51.0	51.0	51.0	56	35.9	0	3	45	0.00	30.170 
14:15	51.0	51.0	51.0	55	35.4	0	1	338	0.00	30.170 
14:20	51.0	51.0	51.0	55	35.4	0	2	338	0.00	30.170 
14:25	51.1	51.1	51.1	57	36.4	1	3	315	0.00	30.170 
14:30	51.3	51.3	51.3	55	35.7	0	1	315	0.00	30.157 
14:35	51.6	51.6	51.6	54	35.5	1	4	315	0.00	30.157 
14:40	51.4	51.4	51.4	54	35.3	0	1	315	0.00	30.157 
14:45	51.6	51.6	51.6	54	35.5	0	2	315	0.00	30.146 
14:50	51.9	51.9	51.9	54	35.8	0	1	315	0.00	30.146 
14:55	51.9	51.9	51.9	53	35.3	1	2	315	0.00	30.146 
15:00	52.0	52.0	52.0	55	36.3	0	1	315	0.00	30.138 
15:05	52.2	52.2	52.2	55	36.5	0	3	315	0.00	30.138 
15:10	52.3	52.3	52.3	56	37.1	0	3	270	0.00	30.138 
15:15	52.5	52.5	52.5	56	37.3	0	1	270	0.00	30.127 
15:20	52.6	52.6	52.6	54	36.4	0	1	270	0.00	30.127 
15:25	52.5	52.5	52.5	54	36.3	0	3	270	0.00	30.127 
15:30	52.5	52.5	52.5	55	36.8	0	1	270	0.00	30.121 
15:35	52.6	52.6	52.6	55	36.9	0	2	270	0.00	30.121 
15:40	52.8	52.8	52.8	54	36.6	0	3	292	0.00	30.121 
15:45	52.9	52.9	52.9	55	37.2	0	2	292	0.00	30.109 
15:50	53.2	53.2	53.2	53	36.5	0	4	292	0.00	30.109 
15:55	53.3	53.3	53.3	52	36.1	0	3	68	0.00	30.109 
16:00	53.3	53.3	53.3	54	37.1	0	2	270	0.00	30.107 
16:05	53.2	53.2	53.2	54	37.0	0	2	270	0.00	30.107 
16:10	53.2	53.2	53.2	53	36.5	0	2	270	0.00	30.107 
16:15	53.1	53.1	53.1	52	35.9	0	3	270	0.00	30.104 
16:20	52.9	52.9	52.9	51	35.3	0	2	270	0.00	30.104 
16:25	52.9	52.9	52.9	54	36.7	0	2	270	0.00	30.104 
16:30	53.1	53.1	53.1	53	36.4	0	1	270	0.00	30.096 
16:35	53.1	53.1	53.1	53	36.4	0	2	270	0.00	30.096 
16:40	53.1	53.1	53.1	53	36.4	0	1	270	0.00	30.096 
16:45	53.2	53.2	53.2	54	37.0	0	0	---	0.00	30.094 
16:50	53.3	53.3	53.3	54	37.1	0	2	270	0.00	30.094 
16:55	53.5	53.5	53.5	54	37.3	0	2	270	0.00	30.094 
17:00	53.3	53.3	53.3	54	37.1	0	4	270	0.00	30.089 
17:05	53.2	53.2	53.2	54	37.0	0	3	270	0.00	30.089 
17:10	53.1	53.1	53.1	54	36.9	0	2	22	0.00	30.089 
17:15	53.1	53.1	53.1	53	36.4	0	1	22	0.00	30.085 
17:20	52.9	52.9	52.9	54	36.7	0	1	22	0.00	30.085 
17:25	52.9	52.9	52.9	55	37.2	0	1	22	0.00	30.085 
17:30	52.9	52.9	52.9	54	36.7	0	1	22	0.00	30.082 
17:35	52.8	52.8	52.8	54	36.6	0	1	22	0.00	30.082 
17:40	52.6	52.6	52.6	55	36.9	0	1	22	0.00	30.082 
17:45	52.5	52.5	52.5	54	36.3	0	1	22	0.00	30.080 
17:50	52.3	52.3	52.3	56	37.1	0	1	22	0.00	30.080 
17:55	52.3	52.3	52.3	56	37.1	0	1	22	0.00	30.080 
18:00	52.2	52.2	52.2	56	37.0	0	1	22	0.00	30.079 
18:05	52.0	52.0	52.0	56	36.8	0	1	22	0.00	30.079 
18:10	52.0	52.0	52.0	56	36.8	0	0	---	0.00	30.079 
18:15	51.9	51.9	51.9	55	36.2	0	1	22	0.00	30.071 
18:20	51.7	51.7	51.7	56	36.5	0	1	22	0.00	30.071 
18:25	51.6	51.6	51.6	55	36.0	0	0	---	0.00	30.071 
18:30	51.6	51.6	51.6	58	37.3	0	0	---	0.00	30.065 
18:35	51.3	51.3	51.3	58	37.0	0	1	22	0.00	30.065 
18:40	51.0	51.0	51.0	58	36.7	0	0	---	0.00	30.065 
18:45	50.7	50.7	50.7	59	36.9	0	0	---	0.00	30.060 
18:50	50.5	50.5	50.5	60	37.1	0	0	---	0.00	30.060 
18:55	50.2	50.2	50.2	62	37.7	0	0	---	0.00	30.060 
19:00	50.1	50.1	50.1	63	38.0	0	0	---	0.00	30.061 
19:05	49.6	49.6	49.6	63	37.5	0	0	---	0.00	30.061 
19:10	49.4	49.4	49.4	65	38.1	0	0	---	0.00	30.061 
19:15	49.1	49.1	49.1	66	38.2	0	0	---	0.00	30.060 
19:20	48.9	48.9	48.9	67	38.4	0	0	---	0.00	30.060 
19:25	48.6	48.6	48.6	68	38.5	0	0	---	0.00	30.060 
19:30	48.3	48.3	48.3	69	38.6	0	0	---	0.00	30.056 
19:35	48.0	48.0	48.0	70	38.7	0	0	---	0.00	30.056 
19:40	47.7	47.7	47.7	70	38.4	0	0	---	0.00	30.056 
19:45	47.4	47.4	47.4	71	38.5	0	0	---	0.00	30.057 
19:50	47.1	47.1	47.1	72	38.5	0	0	---	0.00	30.057 
19:55	46.8	46.8	46.8	73	38.6	0	0	---	0.00	30.057 
20:00	46.7	46.7	46.7	73	38.5	0	0	---	0.00	30.055 
20:05	46.5	46.5	46.5	73	38.3	0	0	---	0.00	30.055 
20:10	46.4	46.4	46.4	74	38.6	0	0	---	0.00	30.055 
20:15	46.2	46.2	46.2	74	38.4	0	0	---	0.00	30.052 
20:20	46.0	46.0	46.0	75	38.5	0	0	---	0.00	30.052 
20:25	45.8	45.8	45.8	76	38.7	0	0	---	0.00	30.052 
20:30	45.8	45.8	45.8	77	39.0	0	0	---	0.00	30.045 
20:35	45.7	45.7	45.7	77	38.9	0	0	---	0.00	30.045 
20:40	45.7	45.7	45.7	77	38.9	0	0	---	0.00	30.045 
20:45	45.5	45.5	45.5	78	39.0	0	0	---	0.00	30.043 
20:50	45.4	45.4	45.4	78	38.9	0	0	---	0.00	30.043 
20:55	45.4	45.4	45.4	79	39.3	0	0	---	0.00	30.043 
21:00	45.5	45.5	45.5	78	39.0	0	0	---	0.00	30.040 
21:05	45.7	45.7	45.7	77	38.9	0	0	---	0.00	30.040 
21:10	46.0	46.0	46.0	77	39.2	0	0	---	0.00	30.040 
21:15	46.1	46.1	46.1	77	39.3	0	0	---	0.00	30.024 
21:20	46.1	46.1	46.1	76	39.0	0	0	---	0.00	30.024 
21:25	46.2	46.2	46.2	76	39.1	0	0	---	0.00	30.024 
21:30	46.2	46.2	46.2	75	38.7	0	0	---	0.00	30.021 
21:35	46.4	46.4	46.4	74	38.6	0	0	---	0.00	30.021 
21:40	46.5	46.5	46.5	74	38.7	0	0	---	0.00	30.021 
21:45	46.8	46.8	46.8	73	38.6	0	0	---	0.00	30.018 
21:50	47.1	47.1	47.1	72	38.5	0	1	22	0.00	30.018 
21:55	47.4	47.4	47.4	70	38.1	0	1	22	0.00	30.018 
22:00	47.7	47.7	47.7	70	38.4	0	1	22	0.00	30.009 
22:05	48.0	48.0	48.0	69	38.3	0	1	22	0.00	30.009 
22:10	48.2	48.2	48.2	69	38.5	0	1	22	0.00	30.009 
22:15	48.5	48.5	48.5	68	38.4	0	2	248	0.00	30.000 
22:20	48.6	48.6	48.6	68	38.5	0	0	---	0.00	30.000 
22:25	48.8	48.8	48.8	68	38.7	0	1	248	0.00	30.000 
22:30	48.9	48.9	48.9	67	38.4	0	2	248	0.00	29.998 
22:35	48.9	48.9	48.9	68	38.8	0	0	---	0.00	29.998 
22:40	48.9	48.9	48.9	68	38.8	0	1	248	0.00	29.998 
22:45	48.9	48.9	48.9	68	38.8	0	0	---	0.00	29.998 
22:50	48.9	48.9	48.9	68	38.8	0	1	248	0.00	29.998 
22:55	49.1	49.1	49.1	69	39.4	0	0	---	0.00	29.998 
23:00	48.9	48.9	48.9	69	39.2	0	1	248	0.00	29.996 
23:05	48.9	48.9	48.9	68	38.8	0	1	248	0.00	29.996 
23:10	48.9	48.9	48.9	68	38.8	0	1	248	0.00	29.996 
23:15	49.1	49.1	49.1	68	39.0	0	0	---	0.00	29.993 
23:20	49.1	49.1	49.1	69	39.4	0	1	248	0.00	29.993 
23:25	49.1	49.1	49.1	69	39.4	0	1	248	0.00	29.993 
23:30	49.1	49.1	49.1	68	39.0	0	1	248	0.00	29.989 
23:35	49.1	49.1	49.1	68	39.0	0	1	248	0.00	29.989 
23:40	49.1	49.1	49.1	68	39.0	0	1	248	0.00	29.989 
23:45	49.1	49.1	49.1	69	39.4	0	1	248	0.00	29.981 
23:50	49.1	49.1	49.1	69	39.4	0	1	248	0.00	29.981 
23:55	49.1	49.1	49.1	69	39.4	0	1	248	0.00	29.981 

CoCoRaHS
IN-AL-39
A2 Web Hosting
Creative Commons License
GoDaddy
search engine by freefind advanced

loaded 2018-11-15 03:29:31 • last modified 2010-11-18 10:43:29
Privacy PolicyDisclaimer
• wx.awcolley.com is powered by PmWiki v.2002016 •
• all content (unless otherwise noted) © 2018 A W Colley